Time;durP1;ratioP1;P1;durP2;ratioP2;P2;SDS_P1;SDS_P2;PMS_P1;PMS_P2;Temp;Humidity;BMP_temperature;BMP_pressure;BME280_temperature;BME280_humidity;BME280_pressure;Samples;Min_cycle;Max_cycle;Signal;HPM_P1;HPM_P2
2022/10/26 00:01:24;;;;;;;10.33;5.77;;;;;;;-145.18;100.00;46666.25;5109432;28;20024;-69
2022/10/26 00:03:50;;;;;;;13.57;5.87;;;;;;;-145.18;100.00;46664.31;5109817;28;20024;-69
2022/10/26 00:06:21;;;;;;;10.60;6.77;;;;;;;-145.18;100.00;46666.25;5109249;28;20415;-69
2022/10/26 00:08:47;;;;;;;14.83;6.70;;;;;;;-145.18;100.00;46662.34;5109782;28;20031;-69
2022/10/26 00:11:13;;;;;;;19.30;8.33;;;;;;;-145.18;100.00;46668.22;5109574;28;20032;-69
2022/10/26 00:13:39;;;;;;;33.73;11.40;;;;;;;-145.18;100.00;46668.22;5113553;28;20476;-68
2022/10/26 00:16:31;;;;;;;31.60;13.10;;;;;;;-145.18;100.00;46666.25;5113122;28;20027;-69
2022/10/26 00:18:57;;;;;;;14.20;7.70;;;;;;;-145.18;100.00;46666.25;5110289;28;20123;-69
2022/10/26 00:21:22;;;;;;;13.40;6.23;;;;;;;-145.18;100.00;46672.13;5112974;28;20111;-69
2022/10/26 00:23:47;;;;;;;13.93;6.67;;;;;;;-145.18;100.00;46668.22;5113347;28;20071;-69
2022/10/26 00:26:13;;;;;;;11.43;6.50;;;;;;;-145.18;100.00;46670.16;5112987;28;20118;-69
2022/10/26 00:28:38;;;;;;;15.67;6.30;;;;;;;-145.18;100.00;46664.31;5078175;28;20198;-69
2022/10/26 00:31:06;;;;;;;15.97;6.90;;;;;;;-145.18;100.00;46666.25;5112656;28;20042;-69
2022/10/26 00:33:32;;;;;;;17.77;6.40;;;;;;;-145.18;100.00;46658.44;5113299;28;20024;-69
2022/10/26 00:35:57;;;;;;;13.67;6.60;;;;;;;-145.18;100.00;46666.25;5113120;28;20031;-69
2022/10/26 00:38:23;;;;;;;10.53;6.40;;;;;;;-145.18;100.00;46672.13;5112771;28;20115;-69
2022/10/26 00:40:48;;;;;;;11.20;6.93;;;;;;;-145.18;100.00;46664.31;5113191;28;20036;-69
2022/10/26 00:43:32;;;;;;;16.57;6.60;;;;;;;-145.18;100.00;46672.13;5112710;28;20039;-69
2022/10/26 00:46:00;;;;;;;13.57;6.83;;;;;;;-145.18;100.00;46668.22;5112682;28;20042;-69
2022/10/26 00:48:34;;;;;;;12.47;6.30;;;;;;;-145.18;100.00;46660.41;5112714;28;20027;-69
2022/10/26 00:51:04;;;;;;;11.03;6.33;;;;;;;-145.18;100.00;46660.41;5112745;28;20460;-69
2022/10/26 00:53:31;;;;;;;12.73;6.90;;;;;;;-145.18;100.00;46666.25;5094463;28;20032;-69
2022/10/26 00:55:57;;;;;;;14.97;6.93;;;;;;;-145.18;100.00;46672.13;5112583;28;20034;-69
2022/10/26 00:58:23;;;;;;;10.17;6.20;;;;;;;-145.18;100.00;46662.34;5111958;28;20039;-69
2022/10/26 01:00:50;;;;;;;12.87;6.30;;;;;;;-145.18;100.00;46672.13;5112696;28;20027;-69
2022/10/26 01:03:16;;;;;;;11.40;6.17;;;;;;;-145.18;100.00;46670.16;5111777;28;20035;-69
2022/10/26 01:05:44;;;;;;;11.83;6.30;;;;;;;-145.18;100.00;46672.13;5112270;28;20059;-69
2022/10/26 01:08:11;;;;;;;10.90;6.70;;;;;;;-145.18;100.00;46672.13;5112149;28;20039;-69
2022/10/26 01:10:39;;;;;;;11.07;6.53;;;;;;;-145.18;100.00;46670.16;5112297;28;20080;-69
2022/10/26 01:13:05;;;;;;;14.77;6.20;;;;;;;-145.18;100.00;46668.22;5112128;28;20032;-69
2022/10/26 01:15:56;;;;;;;17.53;6.13;;;;;;;-145.18;100.00;46670.16;5112241;28;20035;-69
2022/10/26 01:18:26;;;;;;;14.30;6.40;;;;;;;-145.18;100.00;46668.22;5111891;28;20035;-69
2022/10/26 01:21:31;;;;;;;14.03;7.07;;;;;;;-145.18;100.00;46672.13;5112306;28;20038;-69
2022/10/26 01:24:08;;;;;;;20.10;7.20;;;;;;;-145.18;100.00;46672.13;5111055;28;20031;-69
2022/10/26 01:26:39;;;;;;;13.50;6.73;;;;;;;-145.18;100.00;46662.34;5111963;28;20373;-69
2022/10/26 01:29:13;;;;;;;11.43;6.03;;;;;;;-145.18;100.00;46668.22;5111959;28;20527;-69
2022/10/26 01:31:51;;;;;;;10.50;6.47;;;;;;;-145.18;100.00;46666.25;5111673;28;20043;-69
2022/10/26 01:34:24;;;;;;;12.77;6.73;;;;;;;-145.18;100.00;46664.31;5111854;28;20089;-69
2022/10/26 01:36:55;;;;;;;16.73;6.83;;;;;;;-145.18;100.00;46668.22;5111806;28;20042;-69
2022/10/26 01:39:27;;;;;;;16.63;7.07;;;;;;;-145.18;100.00;46670.16;5111569;28;20525;-69
2022/10/26 01:41:58;;;;;;;12.73;6.90;;;;;;;-145.18;100.00;46664.31;5111542;28;20488;-69
2022/10/26 01:44:32;;;;;;;15.13;7.87;;;;;;;-145.18;100.00;46668.22;5111444;28;20050;-69
2022/10/26 01:47:00;;;;;;;16.13;7.77;;;;;;;-145.18;100.00;46664.31;5111583;28;20057;-69
2022/10/26 01:49:29;;;;;;;17.17;7.40;;;;;;;-145.18;100.00;46664.31;5111288;28;20051;-69
2022/10/26 01:51:54;;;;;;;16.07;7.33;;;;;;;-145.18;100.00;46664.31;5111311;28;20119;-69
2022/10/26 01:54:20;;;;;;;17.70;7.37;;;;;;;-145.18;100.00;46666.25;5111557;28;20114;-69
2022/10/26 01:56:49;;;;;;;10.50;6.23;;;;;;;-145.18;100.00;46656.50;5111270;28;20059;-69
2022/10/26 01:59:36;;;;;;;11.50;6.63;;;;;;;-145.18;100.00;46670.16;5111370;28;20031;-69
2022/10/26 02:02:13;;;;;;;16.30;6.37;;;;;;;-145.18;100.00;46666.25;5111007;28;20071;-69
2022/10/26 02:05:29;;;;;;;12.17;6.23;;;;;;;-145.18;100.00;46660.41;5111110;28;20043;-69
2022/10/26 02:07:56;;;;;;;12.83;6.50;;;;;;;-145.18;100.00;46664.31;5111101;28;20032;-69
2022/10/26 02:10:24;;;;;;;15.00;6.80;;;;;;;-145.18;100.00;46670.16;5111000;28;20028;-69
2022/10/26 02:13:02;;;;;;;9.43;6.07;;;;;;;-145.18;100.00;46666.25;5111044;28;20023;-69
2022/10/26 02:15:58;;;;;;;11.33;6.23;;;;;;;-145.18;100.00;46666.25;5111276;28;20038;-69
2022/10/26 02:18:39;;;;;;;15.45;6.68;;;;;;;-145.18;100.00;46664.31;5109999;28;20555;-69
2022/10/26 02:21:10;;;;;;;13.63;5.77;;;;;;;-145.18;100.00;46664.31;5110982;28;20038;-70
2022/10/26 02:23:38;;;;;;;15.00;6.50;;;;;;;-145.18;100.00;46668.22;5110867;28;20031;-69
2022/10/26 02:26:08;;;;;;;15.37;7.10;;;;;;;-145.18;100.00;46664.31;5111013;28;20024;-69
2022/10/26 02:28:37;;;;;;;12.63;6.50;;;;;;;-145.18;100.00;46658.44;5110832;28;20035;-70
2022/10/26 02:31:05;;;;;;;14.73;6.87;;;;;;;-145.18;100.00;46662.34;5111012;28;20038;-69
2022/10/26 02:33:37;;;;;;;17.20;6.80;;;;;;;-145.18;100.00;46660.41;5110757;28;20038;-69
2022/10/26 02:36:07;;;;;;;10.47;6.60;;;;;;;-145.18;100.00;46662.34;5110873;28;20027;-70
2022/10/26 02:38:34;;;;;;;14.47;6.50;;;;;;;-145.18;100.00;46662.34;5110775;28;20031;-69
2022/10/26 02:41:01;;;;;;;11.50;6.60;;;;;;;-145.18;100.00;46664.31;5092363;28;20480;-70
2022/10/26 02:43:29;;;;;;;17.70;6.73;;;;;;;-145.18;100.00;46656.50;5110413;28;20392;-70
2022/10/26 02:46:07;;;;;;;16.17;7.37;;;;;;;-145.18;100.00;46660.41;5110647;28;20039;-70
2022/10/26 02:48:33;;;;;;;16.13;7.47;;;;;;;-145.18;100.00;46666.25;5110435;28;20107;-69
2022/10/26 02:51:10;;;;;;;24.33;9.10;;;;;;;-145.18;100.00;46662.34;5092243;28;20134;-69
2022/10/26 02:53:51;;;;;;;21.03;9.50;;;;;;;-145.18;100.00;46662.34;5110215;28;20035;-69
2022/10/26 02:56:25;;;;;;;17.47;9.47;;;;;;;-145.18;100.00;46662.34;5110477;28;20531;-70
2022/10/26 02:58:55;;;;;;;13.60;8.17;;;;;;;-145.18;100.00;46666.25;5110428;28;20027;-69
2022/10/26 03:03:56;;;;;;;19.40;7.07;;;;;;;-145.18;100.00;46664.31;5066238;23;20516;-70
2022/10/26 03:06:22;;;;;;;14.13;6.87;;;;;;;-145.18;100.00;46666.25;5069680;28;20407;-70
2022/10/26 03:08:48;;;;;;;14.03;6.90;;;;;;;-145.18;100.00;46662.34;5068217;28;20094;-70
2022/10/26 03:11:13;;;;;;;13.33;6.97;;;;;;;-145.18;100.00;46664.31;5069086;28;20493;-70
2022/10/26 03:13:38;;;;;;;15.80;7.40;;;;;;;-145.18;100.00;46664.31;5069153;28;20396;-70
2022/10/26 03:16:04;;;;;;;14.70;7.07;;;;;;;-145.18;100.00;46664.31;5069053;28;20119;-70
2022/10/26 03:18:29;;;;;;;15.97;7.23;;;;;;;-145.18;100.00;46666.25;5069147;28;20041;-69
2022/10/26 03:20:54;;;;;;;10.83;6.83;;;;;;;-145.18;100.00;46664.31;5068964;28;20564;-70
2022/10/26 03:23:20;;;;;;;20.17;7.33;;;;;;;-145.18;100.00;46666.25;5050965;28;20425;-70
2022/10/26 03:25:45;;;;;;;16.13;7.17;;;;;;;-145.18;100.00;46668.22;5068850;28;20056;-70
2022/10/26 03:28:10;;;;;;;16.40;7.13;;;;;;;-145.18;100.00;46666.25;5068919;28;20037;-70
2022/10/26 03:30:36;;;;;;;18.37;7.53;;;;;;;-145.18;100.00;46664.31;5069067;28;20024;-70
2022/10/26 03:33:01;;;;;;;14.77;7.47;;;;;;;-145.18;100.00;46658.44;5068574;28;20029;-70
2022/10/26 03:35:27;;;;;;;14.47;7.50;;;;;;;-145.18;100.00;46658.44;5068919;28;20582;-70
2022/10/26 03:37:52;;;;;;;15.37;7.43;;;;;;;-145.18;100.00;46664.31;5068022;28;20039;-70
2022/10/26 03:40:17;;;;;;;14.00;7.10;;;;;;;-145.18;100.00;46668.22;5068893;28;20068;-70
2022/10/26 03:42:42;;;;;;;16.60;7.20;;;;;;;-145.18;100.00;46658.44;5068517;28;20064;-70
2022/10/26 03:45:09;;;;;;;25.80;8.23;;;;;;;-145.18;100.00;46666.25;5055090;28;20102;-70
2022/10/26 03:47:42;;;;;;;19.77;8.17;;;;;;;-145.18;100.00;46662.34;5087922;28;20036;-70
2022/10/26 03:50:07;;;;;;;13.10;7.60;;;;;;;-145.18;100.00;46668.22;5091514;28;20099;-69
2022/10/26 03:52:33;;;;;;;14.80;6.97;;;;;;;-145.18;100.00;46664.31;5092221;28;20130;-70
2022/10/26 03:54:58;;;;;;;18.37;6.83;;;;;;;-145.18;100.00;46666.25;5092252;28;20059;-70
2022/10/26 03:57:23;;;;;;;15.17;7.63;;;;;;;-145.18;100.00;46662.34;5092329;28;20032;-70
2022/10/26 03:59:49;;;;;;;15.37;7.60;;;;;;;-145.18;100.00;46664.31;5092340;28;20039;-70
2022/10/26 04:02:14;;;;;;;13.57;8.20;;;;;;;-145.18;100.00;46660.41;5049661;28;1212464;-70
2022/10/26 04:04:39;;;;;;;20.80;8.50;;;;;;;-145.18;100.00;46664.31;5079293;28;20044;-70
2022/10/26 04:07:05;;;;;;;34.97;10.10;;;;;;;-145.18;100.00;46662.34;5065341;28;20401;-70
2022/10/26 04:09:30;;;;;;;19.67;8.60;;;;;;;-145.18;100.00;46666.25;5072831;28;20389;-70
2022/10/26 04:11:55;;;;;;;14.37;7.03;;;;;;;-145.18;100.00;46666.25;5072539;28;20393;-70
2022/10/26 04:14:21;;;;;;;14.77;6.43;;;;;;;-145.18;100.00;46664.31;5073091;28;20392;-70
2022/10/26 04:16:46;;;;;;;12.50;6.83;;;;;;;-145.18;100.00;46670.16;5049275;28;20560;-70
2022/10/26 04:19:11;;;;;;;12.33;6.00;;;;;;;-145.18;100.00;46666.25;5063253;28;20032;-70
2022/10/26 04:21:37;;;;;;;16.70;6.40;;;;;;;-145.18;100.00;46666.25;5070317;28;20098;-70
2022/10/26 04:24:02;;;;;;;10.47;6.23;;;;;;;-145.18;100.00;46664.31;5072478;28;20047;-70
2022/10/26 04:26:28;;;;;;;13.37;5.90;;;;;;;-145.18;100.00;46664.31;5072925;28;20111;-69
2022/10/26 04:28:53;;;;;;;12.87;5.33;;;;;;;-145.18;100.00;46668.22;5072564;28;20035;-70
2022/10/26 04:31:18;;;;;;;15.60;6.70;;;;;;;-145.18;100.00;46664.31;5071981;28;20036;-70
2022/10/26 04:33:44;;;;;;;17.77;6.93;;;;;;;-145.18;100.00;46660.41;5072190;28;20400;-71
2022/10/26 04:36:09;;;;;;;15.07;6.23;;;;;;;-145.18;100.00;46664.31;5070208;28;20096;-70
2022/10/26 04:38:34;;;;;;;18.70;8.43;;;;;;;-145.18;100.00;46666.25;5060902;28;20075;-70
2022/10/26 04:41:00;;;;;;;14.80;7.40;;;;;;;-145.18;100.00;46666.25;5063445;28;20463;-70
2022/10/26 04:43:25;;;;;;;18.50;7.37;;;;;;;-145.18;100.00;46672.13;5062938;28;20025;-70
2022/10/26 04:45:55;;;;;;;14.93;7.50;;;;;;;-145.18;100.00;46658.44;5061614;28;20033;-70
2022/10/26 04:48:20;;;;;;;16.23;7.60;;;;;;;-145.18;100.00;46660.41;5057837;28;20393;-70
2022/10/26 04:50:46;;;;;;;13.37;7.30;;;;;;;-145.18;100.00;46664.31;5061419;28;20025;-70
2022/10/26 04:53:11;;;;;;;13.10;7.63;;;;;;;-145.18;100.00;46666.25;5054954;28;20025;-70
2022/10/26 04:55:37;;;;;;;16.77;7.17;;;;;;;-145.18;100.00;46670.16;5052525;28;20048;-70
2022/10/26 04:58:03;;;;;;;15.93;7.20;;;;;;;-145.18;100.00;46670.16;5051539;28;20051;-70
2022/10/26 05:00:31;;;;;;;12.63;6.40;;;;;;;-145.18;100.00;46662.34;5051801;28;20392;-70
2022/10/26 05:03:06;;;;;;;15.60;6.00;;;;;;;-145.18;100.00;46664.31;5051717;28;20081;-70
2022/10/26 05:05:34;;;;;;;8.87;5.30;;;;;;;-145.18;100.00;46662.34;5052168;28;20094;-70
2022/10/26 05:08:00;;;;;;;12.87;5.60;;;;;;;-145.18;100.00;46662.34;5051792;28;20029;-69
2022/10/26 05:10:26;;;;;;;14.57;6.10;;;;;;;-145.18;100.00;46662.34;5059905;28;20111;-69
2022/10/26 05:12:55;;;;;;;15.20;5.73;;;;;;;-145.18;100.00;46666.25;5071444;28;20111;-69
2022/10/26 05:15:21;;;;;;;10.97;4.97;;;;;;;-145.18;100.00;46668.22;5071774;28;20017;-70
2022/10/26 05:17:55;;;;;;;9.40;4.83;;;;;;;-145.18;100.00;46664.31;5071846;28;20197;-69
2022/10/26 05:20:20;;;;;;;8.90;3.93;;;;;;;-145.18;100.00;46664.31;5072355;28;20020;-69
2022/10/26 05:22:52;;;;;;;10.53;4.90;;;;;;;-145.18;100.00;46668.22;5071077;28;20043;-69
2022/10/26 05:25:17;;;;;;;10.17;4.67;;;;;;;-145.18;100.00;46666.25;5071800;28;20493;-69
2022/10/26 05:27:42;;;;;;;12.23;5.17;;;;;;;-145.18;100.00;46666.25;5071257;28;20115;-69
2022/10/26 05:30:08;;;;;;;10.20;4.73;;;;;;;-145.18;100.00;46666.25;5071955;28;20059;-69
2022/10/26 05:32:33;;;;;;;11.60;5.57;;;;;;;-145.18;100.00;46666.25;5071248;28;20033;-69
2022/10/26 05:34:59;;;;;;;11.43;4.23;;;;;;;-145.18;100.00;46664.31;5071419;28;20032;-69
2022/10/26 05:37:27;;;;;;;7.00;4.23;;;;;;;-145.18;100.00;46666.25;5071453;28;20043;-70
2022/10/26 05:39:53;;;;;;;11.23;4.83;;;;;;;-145.18;100.00;46668.22;5071276;28;20037;-70
2022/10/26 05:42:19;;;;;;;12.60;4.77;;;;;;;-145.18;100.00;46672.13;5070982;28;20089;-70
2022/10/26 05:44:45;;;;;;;10.40;4.57;;;;;;;-145.18;100.00;46666.25;5071352;28;20390;-69
2022/10/26 05:47:10;;;;;;;9.53;4.70;;;;;;;-145.18;100.00;46666.25;5071366;28;20089;-70
2022/10/26 05:49:35;;;;;;;12.77;4.57;;;;;;;-145.18;100.00;46666.25;5065421;28;20397;-69
2022/10/26 05:52:01;;;;;;;7.90;4.50;;;;;;;-145.18;100.00;46668.22;5070238;28;20508;-69
2022/10/26 05:54:26;;;;;;;12.20;4.80;;;;;;;-145.18;100.00;46670.16;5071045;28;20066;-69
2022/10/26 05:56:52;;;;;;;8.57;4.13;;;;;;;-145.18;100.00;46668.22;5070303;28;20031;-69
2022/10/26 05:59:17;;;;;;;7.53;4.20;;;;;;;-145.18;100.00;46668.22;5070759;28;20033;-69
2022/10/26 06:02:00;;;;;;;12.83;4.33;;;;;;;-145.18;100.00;46668.22;5070019;28;20075;-69
2022/10/26 06:04:42;;;;;;;10.60;4.37;;;;;;;-145.18;100.00;46672.13;5070893;28;20025;-69
2022/10/26 06:07:12;;;;;;;9.80;4.17;;;;;;;-145.18;100.00;46660.41;5070980;28;20104;-69
2022/10/26 06:09:39;;;;;;;14.13;4.87;;;;;;;-145.18;100.00;46672.13;5070255;28;20029;-69
2022/10/26 06:12:06;;;;;;;11.27;4.20;;;;;;;-145.18;100.00;46668.22;5070085;28;20041;-69
2022/10/26 06:14:32;;;;;;;10.60;4.50;;;;;;;-145.18;100.00;46666.25;5070797;28;20025;-69
2022/10/26 06:17:06;;;;;;;13.70;4.50;;;;;;;-145.18;100.00;46672.13;5070076;28;20147;-69
2022/10/26 06:19:55;;;;;;;10.23;3.97;;;;;;;-145.18;100.00;46676.03;5070412;28;20025;-69
2022/10/26 06:22:38;;;;;;;8.17;4.07;;;;;;;-145.18;100.00;46666.25;5069921;28;20424;-70
2022/10/26 06:25:23;;;;;;;9.40;4.30;;;;;;;-145.18;100.00;46677.97;5070419;28;20040;-69
2022/10/26 06:28:00;;;;;;;10.67;4.13;;;;;;;-145.18;100.00;46670.16;5070147;28;20078;-69
2022/10/26 06:30:26;;;;;;;8.77;4.33;;;;;;;-145.18;100.00;46668.22;5070221;28;20055;-69
2022/10/26 06:32:54;;;;;;;10.37;5.10;;;;;;;-145.18;100.00;46666.25;5069873;28;20121;-69
2022/10/26 06:35:36;;;;;;;12.00;4.10;;;;;;;-145.18;100.00;46670.16;5070759;28;20055;-69
2022/10/26 06:38:06;;;;;;;9.37;5.10;;;;;;;-145.18;100.00;46676.03;5070023;28;20036;-69
2022/10/26 06:40:35;;;;;;;16.57;4.20;;;;;;;-145.18;100.00;46676.03;5070314;28;20032;-69
2022/10/26 06:43:01;;;;;;;11.83;4.03;;;;;;;-145.18;100.00;46666.25;5069800;28;20147;-69
2022/10/26 06:45:27;;;;;;;6.83;3.63;;;;;;;-145.18;100.00;46670.16;5066013;28;20105;-69
2022/10/26 06:47:59;;;;;;;10.53;4.13;;;;;;;-145.18;100.00;46676.03;5069458;28;20518;-69
2022/10/26 06:50:27;;;;;;;11.00;4.03;;;;;;;-145.18;100.00;46670.16;5068826;28;20036;-69
2022/10/26 06:53:05;;;;;;;13.47;4.20;;;;;;;-145.18;100.00;46670.16;5068293;28;20082;-69
2022/10/26 06:55:42;;;;;;;11.37;4.57;;;;;;;-145.18;100.00;46672.13;5069932;28;20032;-69
2022/10/26 06:58:19;;;;;;;16.40;5.07;;;;;;;-145.18;100.00;46674.06;5069755;28;20432;-69
2022/10/26 07:00:48;;;;;;;8.97;4.20;;;;;;;-145.18;100.00;46668.22;5069282;28;20032;-70
2022/10/26 07:03:13;;;;;;;8.93;4.20;;;;;;;-145.18;100.00;46670.16;5069275;28;20070;-69
2022/10/26 07:05:39;;;;;;;11.13;4.50;;;;;;;-145.18;100.00;46672.13;5069694;28;20082;-70
2022/10/26 07:08:04;;;;;;;13.17;4.13;;;;;;;-145.18;100.00;46674.06;5069741;28;20115;-69
2022/10/26 07:10:30;;;;;;;12.23;4.07;;;;;;;-145.18;100.00;46674.06;5069412;28;20055;-69
2022/10/26 07:12:56;;;;;;;9.67;3.90;;;;;;;-145.18;100.00;46677.97;5069148;28;20755;-69
2022/10/26 07:15:21;;;;;;;12.70;3.87;;;;;;;-145.18;100.00;46676.03;5069368;28;20041;-70
2022/10/26 07:17:48;;;;;;;10.27;4.33;;;;;;;-145.18;100.00;46674.06;5069297;28;20029;-69
2022/10/26 07:20:15;;;;;;;11.97;4.40;;;;;;;-145.18;100.00;46679.94;5069905;28;20043;-69
2022/10/26 07:22:41;;;;;;;8.17;4.20;;;;;;;-145.18;100.00;46679.94;5071274;28;20117;-70
2022/10/26 07:25:08;;;;;;;6.93;3.83;;;;;;;-145.18;100.00;46679.94;5073556;28;20559;-70
2022/10/26 07:27:34;;;;;;;13.13;4.20;;;;;;;-145.18;100.00;46676.03;5069287;28;20591;-69
2022/10/26 07:29:59;;;;;;;8.47;3.80;;;;;;;-145.18;100.00;46676.03;5067167;28;20487;-69
2022/10/26 07:32:25;;;;;;;7.80;3.60;;;;;;;-145.18;100.00;46685.78;5067549;28;20065;-69
2022/10/26 07:34:50;;;;;;;9.63;4.00;;;;;;;-145.18;100.00;46685.78;5052431;28;20098;-69
2022/10/26 07:37:16;;;;;;;12.27;4.03;;;;;;;-145.18;100.00;46681.88;5062964;28;20041;-69
2022/10/26 07:39:41;;;;;;;10.73;4.10;;;;;;;-145.18;100.00;46685.78;5053104;28;20567;-69
2022/10/26 07:42:06;;;;;;;14.60;4.50;;;;;;;-145.18;100.00;46685.78;5053861;28;20393;-69
2022/10/26 07:44:32;;;;;;;10.33;5.00;;;;;;;-145.18;100.00;46691.66;5052442;28;20486;-69
2022/10/26 07:46:57;;;;;;;10.23;4.10;;;;;;;-145.18;100.00;46691.66;5061708;28;20039;-69
2022/10/26 07:49:22;;;;;;;12.40;4.20;;;;;;;-145.18;100.00;46693.59;5052699;28;20037;-69
2022/10/26 07:51:48;;;;;;;10.23;4.00;;;;;;;-145.18;100.00;46681.88;5053058;28;20063;-69
2022/10/26 07:54:13;;;;;;;14.47;4.00;;;;;;;-145.18;100.00;46689.69;5054476;28;21282;-70
2022/10/26 07:56:38;;;;;;;9.40;3.83;;;;;;;-145.18;100.00;46689.69;5068627;28;20032;-70
2022/10/26 07:59:04;;;;;;;8.07;3.93;;;;;;;-145.18;100.00;46687.75;5051738;28;20131;-69
2022/10/26 08:01:29;;;;;;;10.57;4.70;;;;;;;-145.18;100.00;46687.75;5052480;28;20559;-69
2022/10/26 08:03:55;;;;;;;10.53;5.17;;;;;;;-145.18;100.00;46679.94;5066272;28;20544;-69
2022/10/26 08:06:21;;;;;;;12.30;4.30;;;;;;;-145.18;100.00;46691.66;5070612;28;20450;-69
2022/10/26 08:08:47;;;;;;;11.60;4.70;;;;;;;-145.18;100.00;46683.84;5052320;28;20148;-69
2022/10/26 08:11:13;;;;;;;10.60;4.70;;;;;;;-145.18;100.00;46683.84;5060595;28;20158;-69
2022/10/26 08:13:38;;;;;;;14.90;5.03;;;;;;;-145.18;100.00;46691.66;5063251;28;20035;-69
2022/10/26 08:16:05;;;;;;;12.30;4.73;;;;;;;-145.18;100.00;46687.75;5065871;28;20412;-69
2022/10/26 08:18:31;;;;;;;16.10;5.53;;;;;;;-145.18;100.00;46683.84;5071313;28;20039;-69
2022/10/26 08:21:02;;;;;;;10.73;5.03;;;;;;;-145.18;100.00;46674.06;5071156;28;20413;-69
2022/10/26 08:23:27;;;;;;;8.70;5.40;;;;;;;-145.18;100.00;46683.84;5061365;28;20029;-69
2022/10/26 08:26:00;;;;;;;10.47;4.77;;;;;;;-145.18;100.00;46683.84;5061791;28;20130;-69
2022/10/26 08:28:26;;;;;;;10.23;4.53;;;;;;;-145.18;100.00;46683.84;5064266;28;20032;-69
2022/10/26 08:30:52;;;;;;;12.13;5.03;;;;;;;-145.18;100.00;46683.84;5071818;28;20087;-69
2022/10/26 08:33:17;;;;;;;11.37;4.47;;;;;;;-145.18;100.00;46685.78;5070439;28;20532;-70
2022/10/26 08:35:42;;;;;;;9.23;4.33;;;;;;;-145.18;100.00;46681.88;5072006;28;20036;-69
2022/10/26 08:38:08;;;;;;;8.40;4.13;;;;;;;-145.18;100.00;46687.75;5072277;28;20067;-69
2022/10/26 08:40:38;;;;;;;11.07;4.13;;;;;;;-145.18;100.00;46685.78;5070695;28;20036;-69
2022/10/26 08:43:20;;;;;;;8.27;4.43;;;;;;;-145.18;100.00;46685.78;5071964;28;20032;-69
2022/10/26 08:45:55;;;;;;;10.37;4.00;;;;;;;-145.18;100.00;46683.84;5071932;28;20036;-70
2022/10/26 08:48:25;;;;;;;11.18;4.07;;;;;;;-145.18;100.00;46685.78;5072303;28;20627;-69
2022/10/26 08:50:59;;;;;;;10.10;4.07;;;;;;;-145.18;100.00;46685.78;5071647;28;20043;-70
2022/10/26 08:53:39;;;;;;;12.73;4.25;;;;;;;-145.18;100.00;46685.78;5062360;28;20500;-69
2022/10/26 08:56:13;;;;;;;7.03;3.63;;;;;;;-145.18;100.00;46687.75;5059713;28;20477;-69
2022/10/26 08:58:46;;;;;;;10.00;3.80;;;;;;;-145.18;100.00;46691.66;5055180;28;20119;-69
2022/10/26 09:01:11;;;;;;;9.53;3.63;;;;;;;-145.18;100.00;46687.75;5066456;28;20469;-69
2022/10/26 09:03:36;;;;;;;7.90;3.03;;;;;;;-145.18;100.00;46689.69;5051278;28;20049;-70
2022/10/26 09:06:28;;;;;;;7.57;3.60;;;;;;;-145.18;100.00;46685.78;5071604;28;20084;-70
2022/10/26 09:09:00;;;;;;;7.67;2.70;;;;;;;-145.18;100.00;46689.69;5071586;28;20064;-69
2022/10/26 09:11:37;;;;;;;6.70;3.33;;;;;;;-145.18;100.00;46687.75;5071601;28;20032;-70
2022/10/26 09:14:02;;;;;;;15.60;3.77;;;;;;;-145.18;100.00;46687.75;5071004;28;20074;-70
2022/10/26 09:17:01;;;;;;;6.50;3.13;;;;;;;-145.18;100.00;46687.75;5071555;28;20028;-70
2022/10/26 09:19:45;;;;;;;11.50;3.50;;;;;;;-145.18;100.00;46691.66;5071523;28;20063;-70
2022/10/26 09:22:14;;;;;;;10.87;3.37;;;;;;;-145.18;100.00;46687.75;5071401;28;20032;-70
2022/10/26 09:24:54;;;;;;;8.87;3.20;;;;;;;-145.18;100.00;46687.75;5070870;28;20032;-70
2022/10/26 09:27:26;;;;;;;9.93;3.87;;;;;;;-145.18;100.00;46691.66;5071536;28;20055;-70
2022/10/26 09:29:54;;;;;;;6.57;3.20;;;;;;;-145.18;100.00;46691.66;5070150;28;20028;-70
2022/10/26 09:32:35;;;;;;;12.67;3.37;;;;;;;-145.18;100.00;46685.78;5071100;28;20487;-70
2022/10/26 09:35:08;;;;;;;9.63;3.00;;;;;;;-145.18;100.00;46685.78;5070605;28;20085;-70
2022/10/26 09:37:45;;;;;;;11.80;3.23;;;;;;;-145.18;100.00;46679.94;5071380;28;20032;-70
2022/10/26 09:40:36;;;;;;;10.70;3.30;;;;;;;-145.18;100.00;46670.16;5071157;28;20033;-70
2022/10/26 09:43:12;;;;;;;13.30;3.60;;;;;;;-145.18;100.00;46658.44;5070809;28;20480;-70
2022/10/26 09:45:43;;;;;;;8.27;3.37;;;;;;;-145.18;100.00;46650.63;5069775;28;20036;-71
2022/10/26 09:48:21;;;;;;;7.97;3.20;;;;;;;-145.18;100.00;46636.94;5059367;28;20103;-70
2022/10/26 09:50:48;;;;;;;12.53;3.20;;;;;;;-145.18;100.00;46621.31;5066247;28;20033;-70
2022/10/26 09:53:14;;;;;;;8.03;3.17;;;;;;;-145.18;100.00;46603.75;5070682;28;20492;-70
2022/10/26 09:55:44;;;;;;;9.80;3.57;;;;;;;-145.18;100.00;46593.97;5070508;28;20040;-70
2022/10/26 09:58:15;;;;;;;9.07;2.60;;;;;;;-145.18;100.00;46586.16;5070733;28;20037;-70
2022/10/26 10:00:41;;;;;;;7.10;2.90;;;;;;;-145.18;100.00;46580.31;5070547;28;20430;-70
2022/10/26 10:03:19;;;;;;;9.97;2.90;;;;;;;-145.18;100.00;46570.53;5070174;28;20095;-70
2022/10/26 10:05:44;;;;;;;9.00;3.17;;;;;;;-145.18;100.00;46572.50;5070141;28;20040;-70
2022/10/26 10:08:23;;;;;;;7.60;3.67;;;;;;;-145.18;100.00;46566.63;5069979;28;20112;-70
2022/10/26 10:11:12;;;;;;;12.13;3.40;;;;;;;-145.18;100.00;46568.59;5070032;28;20042;-70
2022/10/26 10:13:40;;;;;;;8.67;2.90;;;;;;;-145.18;100.00;46576.41;5070052;28;20445;-70
2022/10/26 10:16:22;;;;;;;6.97;2.87;;;;;;;-145.18;100.00;46572.50;5059674;28;20477;-70
2022/10/26 10:18:56;;;;;;;8.30;3.43;;;;;;;-145.18;100.00;46588.13;5054822;28;20103;-70
2022/10/26 10:21:36;;;;;;;6.93;3.50;;;;;;;-145.18;100.00;46617.41;5060095;28;20029;-70
2022/10/26 10:24:20;;;;;;;8.40;3.40;;;;;;;-145.18;100.00;46625.22;5054869;28;20029;-70
2022/10/26 10:27:15;;;;;;;9.80;3.23;;;;;;;-145.18;100.00;46611.56;5062933;28;20054;-70
2022/10/26 10:29:42;;;;;;;10.30;3.20;;;;;;;-145.18;100.00;46588.13;5069543;28;20644;-70
2022/10/26 10:32:14;;;;;;;5.93;3.30;;;;;;;-145.18;100.00;46584.22;5049046;28;20474;-70
2022/10/26 10:34:40;;;;;;;7.53;3.00;;;;;;;-145.18;100.00;46597.88;5053695;28;20041;-70
2022/10/26 10:37:19;;;;;;;8.87;3.13;;;;;;;-145.18;100.00;46623.28;5069973;28;20493;-70
2022/10/26 10:39:44;;;;;;;8.07;3.30;;;;;;;-145.18;100.00;46662.34;5069665;28;20041;-70
2022/10/26 10:42:31;;;;;;;12.13;3.70;;;;;;;-145.18;100.00;46691.66;5052166;28;20037;-70
2022/10/26 10:44:57;;;;;;;12.13;3.87;;;;;;;-145.18;100.00;46703.38;5069311;28;20040;-70
2022/10/26 10:47:26;;;;;;;5.87;3.30;;;;;;;-145.18;100.00;46705.31;5068067;28;20500;-70
2022/10/26 10:50:00;;;;;;;10.50;3.83;;;;;;;-145.18;100.00;46699.47;5059469;28;20024;-70
2022/10/26 10:52:28;;;;;;;6.77;3.73;;;;;;;-145.18;100.00;46701.41;5063078;28;20058;-70
2022/10/26 10:55:14;;;;;;;7.37;3.90;;;;;;;-145.18;100.00;46699.47;5069202;28;20095;-70
2022/10/26 10:58:10;;;;;;;8.00;4.03;;;;;;;-145.18;100.00;46699.47;5069355;28;20044;-70
2022/10/26 11:00:36;;;;;;;11.25;3.75;;;;;;;-145.18;100.00;46697.50;5056890;28;20121;-70
2022/10/26 11:03:05;;;;;;;7.93;3.60;;;;;;;-145.18;100.00;46689.69;5067238;28;20127;-70
2022/10/26 11:05:49;;;;;;;11.50;4.63;;;;;;;-145.18;100.00;46685.78;5068336;28;20051;-69
2022/10/26 11:08:38;;;;;;;10.50;3.67;;;;;;;-145.18;100.00;46693.59;5064812;28;20028;-69
2022/10/26 11:11:16;;;;;;;15.30;4.13;;;;;;;-145.18;100.00;46689.69;5061094;28;20314;-70
2022/10/26 11:13:55;;;;;;;6.03;3.43;;;;;;;-145.18;100.00;46689.69;5053294;28;20565;-69
2022/10/26 11:16:27;;;;;;;6.60;3.23;;;;;;;-145.18;100.00;46685.78;5059676;28;20036;-70
2022/10/26 11:19:01;;;;;;;10.17;3.17;;;;;;;-145.18;100.00;46685.78;5068424;28;20037;-70
2022/10/26 11:21:33;;;;;;;6.30;2.67;;;;;;;-145.18;100.00;46656.50;5066287;28;20048;-70